Time;durP1;ratioP1;P1;durP2;ratioP2;P2;SDS_P1;SDS_P2;PMS_P1;PMS_P2;Temp;Humidity;BMP_temperature;BMP_pressure;BME280_temperature;BME280_humidity;BME280_pressure;Samples;Min_cycle;Max_cycle;Signal;HPM_P1;HPM_P2
2022/04/16 00:02:00;;;;;;;7.72;4.35;;;;;;;;;;5042910;28;20041;-67
2022/04/16 00:04:27;;;;;;;7.85;4.20;;;;;;;;;;5047627;28;20057;-67
2022/04/16 00:06:54;;;;;;;7.60;4.60;;;;;;;;;;5047902;28;20487;-67
2022/04/16 00:09:20;;;;;;;5.38;3.83;;;;;;;;;;5031909;28;20066;-67
2022/04/16 00:11:46;;;;;;;10.07;4.50;;;;;;;;;;5048409;28;20041;-67
2022/04/16 00:14:12;;;;;;;5.60;4.25;;;;;;;;;;5048405;28;20068;-67
2022/04/16 00:16:39;;;;;;;6.07;4.20;;;;;;;;;;5046406;28;20076;-67
2022/04/16 00:19:05;;;;;;;7.10;4.63;;;;;;;;;;5048280;28;20056;-67
2022/04/16 00:21:31;;;;;;;5.75;4.10;;;;;;;;;;5049221;28;20268;-67
2022/04/16 00:23:59;;;;;;;5.75;4.07;;;;;;;;;;5048622;28;20064;-67
2022/04/16 00:26:25;;;;;;;5.57;4.15;;;;;;;;;;5048178;28;20114;-67
2022/04/16 00:28:51;;;;;;;7.18;4.60;;;;;;;;;;5048246;28;20159;-67
2022/04/16 00:31:17;;;;;;;9.40;4.57;;;;;;;;;;5048105;28;20044;-67
2022/04/16 00:33:46;;;;;;;7.10;4.45;;;;;;;;;;5014703;28;20087;-67
2022/04/16 00:36:13;;;;;;;10.95;4.40;;;;;;;;;;5047846;28;20098;-67
2022/04/16 00:38:40;;;;;;;6.57;4.10;;;;;;;;;;5048437;28;20048;-67
2022/04/16 00:41:06;;;;;;;8.13;4.40;;;;;;;;;;5047112;28;20052;-67
2022/04/16 00:43:33;;;;;;;6.32;4.47;;;;;;;;;;5048203;28;20150;-67
2022/04/16 00:45:59;;;;;;;7.05;4.85;;;;;;;;;;5048542;28;20053;-67
2022/04/16 00:48:26;;;;;;;7.05;4.55;;;;;;;;;;5047299;28;20053;-67
2022/04/16 00:50:55;;;;;;;8.68;4.57;;;;;;;;;;5048453;28;20391;-67
2022/04/16 00:53:21;;;;;;;;;;;;;;;;;;5048083;28;20037;-67
2022/04/16 00:55:48;;;;;;;5.45;4.03;;;;;;;;;;5047537;28;19975;-67
2022/04/16 00:58:14;;;;;;;6.60;4.50;;;;;;;;;;5047986;28;20144;-66
2022/04/16 01:00:40;;;;;;;7.85;5.00;;;;;;;;;;5047065;28;20040;-67
2022/04/16 01:03:07;;;;;;;7.57;4.70;;;;;;;;;;5047584;28;20048;-67
2022/04/16 01:05:33;;;;;;;6.07;4.80;;;;;;;;;;5047676;28;20045;-66
2022/04/16 01:08:02;;;;;;;6.10;4.30;;;;;;;;;;5029992;28;20118;-66
2022/04/16 01:10:32;;;;;;;6.82;4.63;;;;;;;;;;5048129;28;20127;-67
2022/04/16 01:13:02;;;;;;;5.80;4.55;;;;;;;;;;5046905;28;20037;-66
2022/04/16 01:15:31;;;;;;;6.90;4.72;;;;;;;;;;5048298;28;20038;-66
2022/04/16 01:17:59;;;;;;;6.47;4.65;;;;;;;;;;5047669;28;20574;-67
2022/04/16 01:20:25;;;;;;;6.72;4.68;;;;;;;;;;5047317;28;20045;-66
2022/04/16 01:22:52;;;;;;;5.90;4.70;;;;;;;;;;5048076;28;20162;-66
2022/04/16 01:25:19;;;;;;;6.18;4.55;;;;;;;;;;5047026;28;20047;-66
2022/04/16 01:27:46;;;;;;;6.82;4.95;;;;;;;;;;5046785;28;20415;-67
2022/04/16 01:30:15;;;;;;;6.30;4.78;;;;;;;;;;5047768;28;20068;-67
2022/04/16 01:32:41;;;;;;;8.15;4.88;;;;;;;;;;5047873;28;20533;-67
2022/04/16 01:35:08;;;;;;;6.15;4.63;;;;;;;;;;5046867;28;20123;-67
2022/04/16 01:37:35;;;;;;;6.38;5.00;;;;;;;;;;5047675;28;20071;-67
2022/04/16 01:40:05;;;;;;;7.32;5.10;;;;;;;;;;5046902;28;20107;-67
2022/04/16 01:42:32;;;;;;;6.93;5.18;;;;;;;;;;5047429;28;20049;-66
2022/04/16 01:45:01;;;;;;;6.43;4.97;;;;;;;;;;5047811;28;20473;-66
2022/04/16 01:47:27;;;;;;;;;;;;;;;;;;5033103;28;20111;-67
2022/04/16 01:49:54;;;;;;;6.80;5.13;;;;;;;;;;5051347;28;20015;-66
2022/04/16 01:52:21;;;;;;;6.53;5.07;;;;;;;;;;5051803;28;20053;-66
2022/04/16 01:54:48;;;;;;;7.20;5.15;;;;;;;;;;5050872;28;20495;-66
2022/04/16 01:57:18;;;;;;;7.93;5.45;;;;;;;;;;5051392;28;20448;-66
2022/04/16 01:59:44;;;;;;;6.95;4.90;;;;;;;;;;5050568;28;20473;-67
2022/04/16 02:02:10;;;;;;;7.05;5.22;;;;;;;;;;5051025;28;20431;-65
2022/04/16 02:04:36;;;;;;;6.60;4.93;;;;;;;;;;5051020;28;20048;-65
2022/04/16 02:07:02;;;;;;;7.22;4.80;;;;;;;;;;5050018;28;20037;-66
2022/04/16 02:09:28;;;;;;;8.90;5.10;;;;;;;;;;5050804;28;20498;-66
2022/04/16 02:11:54;;;;;;;5.97;4.95;;;;;;;;;;5050310;28;20053;-66
2022/04/16 02:14:21;;;;;;;6.25;4.97;;;;;;;;;;5049348;28;20498;-66
2022/04/16 02:16:48;;;;;;;7.45;4.72;;;;;;;;;;5050394;28;20060;-66
2022/04/16 02:19:14;;;;;;;6.45;5.28;;;;;;;;;;5050099;28;20049;-66
2022/04/16 02:21:41;;;;;;;6.93;4.97;;;;;;;;;;5050445;28;20067;-66
2022/04/16 02:24:07;;;;;;;7.10;5.35;;;;;;;;;;5049748;28;20067;-66
2022/04/16 02:26:33;;;;;;;5.68;4.60;;;;;;;;;;5050334;28;20076;-66
2022/04/16 02:29:00;;;;;;;7.63;5.43;;;;;;;;;;5049720;28;20045;-66
2022/04/16 02:31:29;;;;;;;5.80;4.85;;;;;;;;;;5050299;28;20419;-66
2022/04/16 02:33:58;;;;;;;7.13;5.10;;;;;;;;;;5050058;28;20089;-66
2022/04/16 02:36:27;;;;;;;6.78;5.53;;;;;;;;;;5049764;28;20053;-66
2022/04/16 02:38:54;;;;;;;7.13;5.22;;;;;;;;;;5030836;28;20735;-66
2022/04/16 02:41:23;;;;;;;6.22;4.95;;;;;;;;;;5049472;28;20067;-66
2022/04/16 02:43:49;;;;;;;7.70;5.25;;;;;;;;;;5049373;28;20049;-66
2022/04/16 02:49:00;;;;;;;6.80;5.18;;;;;;;;;;5049329;28;20464;-67
2022/04/16 02:51:26;;;;;;;9.35;5.22;;;;;;;;;;5049567;28;20442;-66
2022/04/16 02:53:52;;;;;;;6.35;4.55;;;;;;;;;;5049584;28;20352;-66
2022/04/16 02:56:18;;;;;;;10.98;5.72;;;;;;;;;;5049651;28;20448;-66
2022/04/16 02:58:44;;;;;;;15.35;5.05;;;;;;;;;;5049228;28;20494;-66
2022/04/16 03:01:11;;;;;;;9.35;4.65;;;;;;;;;;5049494;28;20090;-66
2022/04/16 03:03:37;;;;;;;6.75;4.95;;;;;;;;;;5050089;28;20049;-66
2022/04/16 03:06:03;;;;;;;8.82;4.95;;;;;;;;;;5050032;28;20465;-66
2022/04/16 03:08:29;;;;;;;8.30;4.75;;;;;;;;;;5049394;28;20510;-66
2022/04/16 03:10:55;;;;;;;10.85;4.95;;;;;;;;;;5049217;28;20045;-67
2022/04/16 03:13:22;;;;;;;6.72;5.05;;;;;;;;;;5048877;28;20076;-66
2022/04/16 03:18:33;;;;;;;7.55;4.72;;;;;;;;;;5049846;28;20057;-65
2022/04/16 03:21:00;;;;;;;11.05;4.82;;;;;;;;;;5049651;28;20052;-66
2022/04/16 03:23:26;;;;;;;8.32;5.10;;;;;;;;;;5049239;28;20049;-66
2022/04/16 03:25:53;;;;;;;6.72;5.45;;;;;;;;;;5049524;28;20076;-66
2022/04/16 03:28:19;;;;;;;7.43;5.03;;;;;;;;;;5048925;28;20055;-66
2022/04/16 03:30:46;;;;;;;9.68;5.28;;;;;;;;;;5049255;28;20037;-66
2022/04/16 03:33:12;;;;;;;7.70;5.45;;;;;;;;;;5048706;28;20401;-66
2022/04/16 03:35:39;;;;;;;10.50;5.70;;;;;;;;;;5048754;28;20053;-66
2022/04/16 03:38:05;;;;;;;7.90;5.68;;;;;;;;;;5049341;28;20120;-66
2022/04/16 03:40:31;;;;;;;7.90;5.80;;;;;;;;;;5047426;28;20053;-65
2022/04/16 03:42:58;;;;;;;8.10;5.72;;;;;;;;;;5048651;28;20044;-65
2022/04/16 03:45:26;;;;;;;7.35;4.95;;;;;;;;;;5049107;28;20064;-65
2022/04/16 03:47:53;;;;;;;21.15;5.75;;;;;;;;;;5048700;28;20140;-66
2022/04/16 03:50:20;;;;;;;6.85;5.28;;;;;;;;;;5049292;28;20095;-66
2022/04/16 03:52:47;;;;;;;8.10;5.63;;;;;;;;;;5048642;28;20420;-66
2022/04/16 04:00:46;;;;;;;8.05;6.32;;;;;;;;;;5048110;28;20156;-65
2022/04/16 04:03:12;;;;;;;;;;;;;;;;;;5049263;28;20140;-65
2022/04/16 04:05:39;;;;;;;9.15;5.88;;;;;;;;;;5048981;28;20059;-66
2022/04/16 04:08:08;;;;;;;9.55;5.90;;;;;;;;;;5048231;28;20063;-66
2022/04/16 04:10:35;;;;;;;8.13;6.00;;;;;;;;;;5047942;28;20054;-66
2022/04/16 04:13:01;;;;;;;9.00;6.22;;;;;;;;;;5048287;28;20049;-66
2022/04/16 04:15:29;;;;;;;7.28;5.90;;;;;;;;;;5047964;28;20037;-65
2022/04/16 04:17:55;;;;;;;8.80;5.40;;;;;;;;;;5048114;28;20041;-66
2022/04/16 04:20:21;;;;;;;8.90;6.05;;;;;;;;;;5048098;28;20055;-66
2022/04/16 04:22:47;;;;;;;9.10;6.75;;;;;;;;;;5047143;28;20051;-66
2022/04/16 04:25:13;;;;;;;9.23;6.45;;;;;;;;;;5048432;28;20037;-66
2022/04/16 04:27:39;;;;;;;9.52;6.90;;;;;;;;;;5048321;28;20128;-66
2022/04/16 04:30:06;;;;;;;10.05;7.07;;;;;;;;;;5047910;28;20103;-67
2022/04/16 04:32:32;;;;;;;8.50;7.10;;;;;;;;;;5047623;28;20037;-67
2022/04/16 04:34:58;;;;;;;9.15;6.65;;;;;;;;;;5047276;28;20045;-66
2022/04/16 04:37:24;;;;;;;8.90;6.90;;;;;;;;;;5047720;28;20079;-67
2022/04/16 04:39:50;;;;;;;9.60;7.05;;;;;;;;;;5048131;28;20124;-66
2022/04/16 04:42:23;;;;;;;11.13;6.97;;;;;;;;;;5046909;28;20045;-66
2022/04/16 04:44:49;;;;;;;7.88;7.07;;;;;;;;;;5047955;28;20044;-66
2022/04/16 04:47:15;;;;;;;8.02;6.75;;;;;;;;;;5047673;28;20084;-66
2022/04/16 04:49:41;;;;;;;9.57;6.90;;;;;;;;;;5047795;28;20091;-66
2022/04/16 04:52:07;;;;;;;10.02;7.38;;;;;;;;;;5047638;28;20088;-66
2022/04/16 04:54:33;;;;;;;8.90;6.93;;;;;;;;;;5048128;28;20104;-67
2022/04/16 04:56:59;;;;;;;8.27;7.10;;;;;;;;;;5029941;28;20060;-66
2022/04/16 04:59:25;;;;;;;9.77;7.45;;;;;;;;;;5047133;28;20107;-67
2022/04/16 05:01:52;;;;;;;8.43;7.00;;;;;;;;;;5048055;28;20041;-66
2022/04/16 05:04:18;;;;;;;8.85;7.38;;;;;;;;;;5046118;28;20049;-66
2022/04/16 05:06:44;;;;;;;9.30;7.20;;;;;;;;;;5048008;28;20055;-66
2022/04/16 05:09:11;;;;;;;8.45;7.53;;;;;;;;;;5048012;28;20045;-66
2022/04/16 05:11:37;;;;;;;9.05;7.32;;;;;;;;;;5047902;28;20106;-66
2022/04/16 05:14:03;;;;;;;8.52;7.20;;;;;;;;;;5048601;28;20041;-66
2022/04/16 05:16:29;;;;;;;9.18;7.53;;;;;;;;;;5047776;28;20057;-66
2022/04/16 05:18:55;;;;;;;8.60;7.45;;;;;;;;;;5045726;28;20067;-66
2022/04/16 05:21:21;;;;;;;8.90;7.50;;;;;;;;;;5049374;28;20044;-66
2022/04/16 05:23:47;;;;;;;8.63;7.22;;;;;;;;;;5052206;28;20048;-66
2022/04/16 05:26:13;;;;;;;9.10;7.45;;;;;;;;;;5051542;28;20155;-66
2022/04/16 05:28:40;;;;;;;10.43;7.80;;;;;;;;;;5052495;28;20045;-67
2022/04/16 05:31:06;;;;;;;10.75;8.02;;;;;;;;;;5051787;28;20041;-67
2022/04/16 05:36:18;;;;;;;9.43;7.30;;;;;;;;;;5051963;28;20099;-67
2022/04/16 05:38:44;;;;;;;8.63;7.20;;;;;;;;;;5051110;28;20095;-67
2022/04/16 05:41:11;;;;;;;9.02;7.18;;;;;;;;;;5051633;28;20054;-67
2022/04/16 05:43:37;;;;;;;9.27;7.72;;;;;;;;;;5052113;28;20049;-67
2022/04/16 05:46:03;;;;;;;8.70;7.45;;;;;;;;;;5051959;28;20045;-67
2022/04/16 05:48:29;;;;;;;8.60;6.90;;;;;;;;;;5033721;28;20160;-67
2022/04/16 05:50:56;;;;;;;11.30;7.72;;;;;;;;;;5051922;28;20045;-67
2022/04/16 05:53:23;;;;;;;11.13;7.43;;;;;;;;;;5051576;28;20060;-67
2022/04/16 05:55:50;;;;;;;10.18;7.25;;;;;;;;;;5051670;28;20045;-67
2022/04/16 05:58:17;;;;;;;9.32;7.43;;;;;;;;;;5051884;28;20057;-66
2022/04/16 06:00:43;;;;;;;9.48;7.20;;;;;;;;;;5051764;28;20048;-66
2022/04/16 06:03:09;;;;;;;8.75;7.72;;;;;;;;;;5050836;28;20045;-67
2022/04/16 06:05:35;;;;;;;8.80;7.50;;;;;;;;;;5049868;28;20048;-67
2022/04/16 06:08:02;;;;;;;11.98;7.57;;;;;;;;;;5041342;28;20041;-67
2022/04/16 06:10:28;;;;;;;12.30;7.95;;;;;;;;;;5047973;28;20037;-67
2022/04/16 06:12:54;;;;;;;9.48;7.95;;;;;;;;;;5050163;28;20098;-67
2022/04/16 06:15:20;;;;;;;8.80;7.70;;;;;;;;;;5049930;28;20048;-67
2022/04/16 06:17:46;;;;;;;8.75;7.60;;;;;;;;;;5049123;28;20455;-67
2022/04/16 06:20:13;;;;;;;9.00;7.88;;;;;;;;;;5035224;28;20045;-67
2022/04/16 06:22:39;;;;;;;8.50;7.18;;;;;;;;;;5050046;28;20041;-67
2022/04/16 06:25:06;;;;;;;10.10;7.78;;;;;;;;;;5049610;28;20495;-66
2022/04/16 06:27:32;;;;;;;20.27;8.27;;;;;;;;;;5049535;28;20051;-67
2022/04/16 06:29:58;;;;;;;9.52;7.63;;;;;;;;;;5049384;28;20044;-67
2022/04/16 06:32:24;;;;;;;18.15;7.47;;;;;;;;;;5047791;28;20074;-66
2022/04/16 06:34:50;;;;;;;11.88;7.35;;;;;;;;;;5048791;28;20087;-67
2022/04/16 06:37:16;;;;;;;13.20;7.30;;;;;;;;;;5009064;28;20226;-67
2022/04/16 06:39:42;;;;;;;10.18;7.43;;;;;;;;;;5009560;28;20060;-67
2022/04/16 06:42:08;;;;;;;12.25;7.75;;;;;;;;;;5008460;28;20054;-66
2022/04/16 06:44:34;;;;;;;16.60;7.40;;;;;;;;;;5008757;28;20037;-65
2022/04/16 06:47:00;;;;;;;9.13;7.35;;;;;;;;;;5008728;28;20085;-66
2022/04/16 06:49:26;;;;;;;10.35;6.97;;;;;;;;;;5006885;28;20141;-66
2022/04/16 06:51:52;;;;;;;10.23;7.22;;;;;;;;;;5008575;28;20153;-66
2022/04/16 06:54:18;;;;;;;10.95;7.53;;;;;;;;;;5007792;28;20033;-66
2022/04/16 06:56:45;;;;;;;14.18;7.43;;;;;;;;;;5008698;28;20049;-65
2022/04/16 06:59:11;;;;;;;8.60;7.00;;;;;;;;;;5008286;28;20092;-66
2022/04/16 07:01:37;;;;;;;10.20;7.38;;;;;;;;;;5008110;28;20074;-66
2022/04/16 07:04:03;;;;;;;13.35;7.68;;;;;;;;;;5008398;28;20038;-66
2022/04/16 07:06:29;;;;;;;9.73;7.63;;;;;;;;;;5008531;28;20419;-66
2022/04/16 07:08:55;;;;;;;7.90;6.82;;;;;;;;;;5008478;28;20136;-66
2022/04/16 07:11:21;;;;;;;10.30;7.22;;;;;;;;;;5007884;28;20124;-66
2022/04/16 07:13:47;;;;;;;9.43;7.32;;;;;;;;;;5005638;28;20057;-66
2022/04/16 07:16:13;;;;;;;11.70;7.40;;;;;;;;;;5007928;28;20042;-66
2022/04/16 07:18:39;;;;;;;9.57;7.15;;;;;;;;;;5008009;28;20045;-67
2022/04/16 07:21:05;;;;;;;11.85;7.25;;;;;;;;;;5007666;28;20050;-66
2022/04/16 07:23:31;;;;;;;11.88;7.65;;;;;;;;;;5008005;28;20038;-65
2022/04/16 07:25:57;;;;;;;10.18;7.40;;;;;;;;;;5007890;28;20110;-66
2022/04/16 07:28:23;;;;;;;9.80;7.32;;;;;;;;;;5008573;28;20038;-66
2022/04/16 07:30:49;;;;;;;9.35;7.20;;;;;;;;;;5007582;28;20140;-66
2022/04/16 07:33:16;;;;;;;8.13;6.93;;;;;;;;;;5007371;28;20696;-66
2022/04/16 07:35:42;;;;;;;8.80;7.55;;;;;;;;;;5021266;28;20054;-66
2022/04/16 07:38:08;;;;;;;9.73;7.60;;;;;;;;;;5046911;28;20053;-66
2022/04/16 07:40:34;;;;;;;8.20;7.20;;;;;;;;;;5047969;28;20091;-66
2022/04/16 07:43:03;;;;;;;9.40;7.57;;;;;;;;;;5046815;28;20048;-67
2022/04/16 07:45:29;;;;;;;10.52;7.20;;;;;;;;;;5044998;28;20235;-65
2022/04/16 07:47:55;;;;;;;8.77;6.80;;;;;;;;;;5047498;28;20135;-67
2022/04/16 07:50:21;;;;;;;8.65;7.10;;;;;;;;;;5047556;28;20833;-66
2022/04/16 07:52:48;;;;;;;9.40;7.60;;;;;;;;;;5046186;28;20076;-66
2022/04/16 07:55:15;;;;;;;10.07;7.40;;;;;;;;;;5047107;28;20131;-66
2022/04/16 07:57:41;;;;;;;9.02;7.85;;;;;;;;;;5046896;28;20041;-66
2022/04/16 08:00:07;;;;;;;7.78;6.90;;;;;;;;;;5047066;28;20040;-66
2022/04/16 08:02:33;;;;;;;9.48;7.35;;;;;;;;;;5046998;28;20108;-66
2022/04/16 08:05:00;;;;;;;8.40;6.82;;;;;;;;;;5046205;28;20099;-66
2022/04/16 08:07:26;;;;;;;10.75;7.85;;;;;;;;;;5046848;28;20037;-66
2022/04/16 08:09:52;;;;;;;11.45;8.45;;;;;;;;;;5047142;28;20146;-68
2022/04/16 08:12:18;;;;;;;13.43;7.80;;;;;;;;;;5046636;28;20060;-68
2022/04/16 08:14:44;;;;;;;12.85;7.75;;;;;;;;;;5047386;28;20476;-68
2022/04/16 08:17:10;;;;;;;11.60;7.03;;;;;;;;;;5046503;28;20045;-68
2022/04/16 08:19:36;;;;;;;10.82;5.95;;;;;;;;;;5033171;28;20079;-68
2022/04/16 08:22:07;;;;;;;10.23;6.15;;;;;;;;;;5046924;28;20552;-68
2022/04/16 08:24:39;;;;;;;8.82;5.68;;;;;;;;;;5046711;28;20041;-68
2022/04/16 08:27:06;;;;;;;8.68;5.55;;;;;;;;;;5073076;28;20052;-68
2022/04/16 08:29:32;;;;;;;9.95;5.40;;;;;;;;;;5048327;28;20411;-68
2022/04/16 08:31:59;;;;;;;8.55;5.00;;;;;;;;;;5047741;28;20483;-69
2022/04/16 08:34:25;;;;;;;10.82;5.78;;;;;;;;;;5013615;28;20105;-68
2022/04/16 08:36:51;;;;;;;7.38;4.75;;;;;;;;;;5047495;28;20056;-67
2022/04/16 08:39:17;;;;;;;7.90;4.78;;;;;;;;;;5048235;28;20053;-67
2022/04/16 08:41:43;;;;;;;10.43;5.25;;;;;;;;;;5047901;28;20052;-68
2022/04/16 08:44:10;;;;;;;8.82;4.78;;;;;;;;;;5047739;28;20067;-68
2022/04/16 08:46:36;;;;;;;9.63;4.78;;;;;;;;;;5031459;28;20120;-68
2022/04/16 08:49:02;;;;;;;7.97;4.90;;;;;;;;;;5048202;28;20044;-70
2022/04/16 08:51:30;;;;;;;8.00;3.92;;;;;;;;;;5048324;28;20110;-67
2022/04/16 08:53:56;;;;;;;7.35;4.07;;;;;;;;;;5030718;28;20098;-67
2022/04/16 08:56:22;;;;;;;6.95;3.83;;;;;;;;;;5047331;28;20060;-68
2022/04/16 08:58:49;;;;;;;7.70;3.40;;;;;;;;;;5030651;28;20072;-68
2022/04/16 09:01:16;;;;;;;5.82;3.15;;;;;;;;;;5030555;28;20056;-68
2022/04/16 09:03:42;;;;;;;5.93;2.80;;;;;;;;;;5048197;28;20084;-68
2022/04/16 09:06:08;;;;;;;5.63;2.78;;;;;;;;;;5047690;28;20041;-68
2022/04/16 09:08:35;;;;;;;4.97;2.60;;;;;;;;;;5048328;28;20147;-68
2022/04/16 09:11:12;;;;;;;3.83;2.03;;;;;;;;;;5030339;28;20098;-68
2022/04/16 09:13:49;;;;;;;3.10;1.60;;;;;;;;;;5048105;28;20476;-68
2022/04/16 09:16:16;;;;;;;4.65;1.70;;;;;;;;;;5048068;28;20136;-68
2022/04/16 09:18:46;;;;;;;3.70;1.88;;;;;;;;;;5046770;28;20049;-68
2022/04/16 09:21:15;;;;;;;3.55;1.75;;;;;;;;;;5047390;28;20415;-68
2022/04/16 09:23:52;;;;;;;6.07;2.50;;;;;;;;;;5048093;28;20178;-68
2022/04/16 09:26:45;;;;;;;3.13;1.40;;;;;;;;;;5047531;28;20077;-68
2022/04/16 09:29:15;;;;;;;5.22;1.50;;;;;;;;;;5041903;28;20063;-68
2022/04/16 09:31:41;;;;;;;;;;;;;;;;;;5047790;28;20104;-68
2022/04/16 09:34:08;;;;;;;3.72;1.40;;;;;;;;;;5047712;28;20393;-69
2022/04/16 09:36:39;;;;;;;2.55;1.20;;;;;;;;;;5047076;28;20503;-68
2022/04/16 09:39:07;;;;;;;2.63;0.90;;;;;;;;;;5047217;28;20083;-69
2022/04/16 09:41:33;;;;;;;2.60;0.88;;;;;;;;;;5029249;28;20045;-69
2022/04/16 09:44:00;;;;;;;3.67;1.00;;;;;;;;;;5028897;28;20049;-68
2022/04/16 09:46:27;;;;;;;2.85;1.15;;;;;;;;;;5047584;28;20045;-67
2022/04/16 09:48:56;;;;;;;2.25;0.93;;;;;;;;;;5046645;28;20415;-68
2022/04/16 09:51:23;;;;;;;2.97;1.10;;;;;;;;;;5028720;28;20053;-68
2022/04/16 09:53:51;;;;;;;2.17;0.98;;;;;;;;;;5046727;28;20048;-68
2022/04/16 09:56:18;;;;;;;1.03;0.50;;;;;;;;;;5046910;28;20073;-69
2022/04/16 09:58:50;;;;;;;1.88;0.98;;;;;;;;;;5046732;28;20041;-69
2022/04/16 10:01:16;;;;;;;2.13;0.70;;;;;;;;;;5047383;28;20057;-68
2022/04/16 10:03:43;;;;;;;1.88;0.60;;;;;;;;;;5046747;28;20456;-69
2022/04/16 10:06:10;;;;;;;1.40;0.73;;;;;;;;;;5041342;28;20080;-68
2022/04/16 10:08:36;;;;;;;2.08;0.90;;;;;;;;;;5050497;28;20041;-70
2022/04/16 10:11:03;;;;;;;1.15;0.50;;;;;;;;;;5050451;28;20044;-68
2022/04/16 10:13:32;;;;;;;4.07;0.73;;;;;;;;;;5050775;28;20037;-68
2022/04/16 10:16:01;;;;;;;1.30;0.60;;;;;;;;;;5050637;28;20333;-67
2022/04/16 10:18:27;;;;;;;2.57;0.80;;;;;;;;;;5049524;28;20314;-68
2022/04/16 10:20:54;;;;;;;1.60;0.60;;;;;;;;;;5032914;28;20777;-67
2022/04/16 10:23:27;;;;;;;1.30;0.70;;;;;;;;;;5050104;28;20044;-68
2022/04/16 10:26:00;;;;;;;2.60;0.80;;;;;;;;;;5050543;28;20079;-68
2022/04/16 10:28:28;;;;;;;1.60;0.70;;;;;;;;;;5049229;28;20048;-68
2022/04/16 10:30:55;;;;;;;1.25;0.63;;;;;;;;;;5050449;28;20045;-69
2022/04/16 10:33:28;;;;;;;1.05;0.68;;;;;;;;;;5050630;28;20211;-68
2022/04/16 10:35:56;;;;;;;2.72;0.60;;;;;;;;;;5050041;28;20065;-69
2022/04/16 10:38:24;;;;;;;1.00;0.60;;;;;;;;;;5049704;28;20610;-69
2022/04/16 10:41:01;;;;;;;1.55;0.73;;;;;;;;;;5049281;28;20045;-68
2022/04/16 10:43:27;;;;;;;1.88;0.70;;;;;;;;;;5039020;28;20064;-68
2022/04/16 10:46:07;;;;;;;4.57;0.77;;;;;;;;;;5049913;28;20069;-69
2022/04/16 10:48:43;;;;;;;1.35;0.60;;;;;;;;;;5049646;28;20117;-67
2022/04/16 10:51:09;;;;;;;1.08;0.60;;;;;;;;;;5049654;28;20541;-68
2022/04/16 10:53:36;;;;;;;1.58;0.68;;;;;;;;;;5046598;28;20086;-68
2022/04/16 10:56:21;;;;;;;1.55;0.85;;;;;;;;;;5048179;28;20086;-68
2022/04/16 10:58:48;;;;;;;1.15;0.50;;;;;;;;;;5047673;28;20111;-69
2022/04/16 11:01:24;;;;;;;1.15;0.55;;;;;;;;;;5046017;28;20045;-69
2022/04/16 11:03:50;;;;;;;2.47;0.60;;;;;;;;;;5048387;28;20128;-69
2022/04/16 11:06:17;;;;;;;2.22;0.60;;;;;;;;;;5047838;28;20051;-69
2022/04/16 11:08:45;;;;;;;1.33;0.60;;;;;;;;;;5047401;28;20048;-70
2022/04/16 11:11:12;;;;;;;2.35;0.50;;;;;;;;;;5047878;28;20408;-69
2022/04/16 11:13:39;;;;;;;1.80;0.60;;;;;;;;;;5048395;28;20392;-69
2022/04/16 11:16:06;;;;;;;1.58;0.70;;;;;;;;;;5041547;28;20480;-69
2022/04/16 11:18:42;;;;;;;1.40;0.60;;;;;;;;;;5047411;28;20048;-69
2022/04/16 11:21:12;;;;;;;2.42;0.70;;;;;;;;;;5048090;28;20483;-70
2022/04/16 11:23:50;;;;;;;1.10;0.68;;;;;;;;;;5047948;28;20455;-69
2022/04/16 11:34:32;;;;;;;1.60;0.70;;;;;;;;;;5045411;28;20128;-69
2022/04/16 11:36:59;;;;;;;1.40;0.60;;;;;;;;;;5047209;28;20091;-69
2022/04/16 11:39:26;;;;;;;2.63;0.50;;;;;;;;;;5048308;28;20063;-68
2022/04/16 11:41:59;;;;;;;0.68;0.60;;;;;;;;;;5049187;28;20048;-68
2022/04/16 11:44:33;;;;;;;2.17;0.80;;;;;;;;;;5049219;28;20045;-68
2022/04/16 11:47:02;;;;;;;2.22;0.60;;;;;;;;;;5049427;28;20049;-68
2022/04/16 11:49:30;;;;;;;1.67;0.75;;;;;;;;;;5049569;28;20135;-68
2022/04/16 11:51:57;;;;;;;2.00;0.85;;;;;;;;;;5048774;28;20041;-68
2022/04/16 11:54:30;;;;;;;1.70;0.65;;;;;;;;;;5049223;28;20041;-68
2022/04/16 11:56:57;;;;;;;3.40;0.80;;;;;;;;;;5030843;28;20055;-68
2022/04/16 11:59:26;;;;;;;1.40;0.60;;;;;;;;;;5048652;28;20045;-68
2022/04/16 12:02:06;;;;;;;11.23;1.05;;;;;;;;;;5049331;28;20054;-67
2022/04/16 12:04:42;;;;;;;3.33;0.73;;;;;;;;;;5049269;28;20041;-67
2022/04/16 12:07:18;;;;;;;10.45;0.70;;;;;;;;;;5049509;28;20045;-67
2022/04/16 12:09:46;;;;;;;4.50;0.60;;;;;;;;;;5049256;28;20045;-67
2022/04/16 12:12:14;;;;;;;5.15;0.60;;;;;;;;;;5049009;28;20045;-67
2022/04/16 12:14:50;;;;;;;2.20;0.45;;;;;;;;;;5031591;28;20558;-67
2022/04/16 12:17:24;;;;;;;2.08;0.60;;;;;;;;;;5031407;28;20133;-67
2022/04/16 12:20:16;;;;;;;5.03;0.80;;;;;;;;;;5048819;28;20049;-68
2022/04/16 12:22:49;;;;;;;2.20;0.70;;;;;;;;;;5045543;28;20110;-67
2022/04/16 12:25:19;;;;;;;2.58;0.50;;;;;;;;;;5048188;28;20399;-68
2022/04/16 12:27:52;;;;;;;2.05;0.85;;;;;;;;;;5049182;28;20049;-67
2022/04/16 12:30:26;;;;;;;1.20;0.50;;;;;;;;;;5048955;28;20048;-67
2022/04/16 12:32:56;;;;;;;2.35;1.00;;;;;;;;;;5048845;28;20051;-68
2022/04/16 12:35:22;;;;;;;3.95;0.93;;;;;;;;;;5049171;28;20446;-68
2022/04/16 12:37:48;;;;;;;1.52;0.45;;;;;;;;;;5048486;28;20049;-67
2022/04/16 12:40:14;;;;;;;3.60;1.38;;;;;;;;;;5048720;28;20048;-68
2022/04/16 12:42:40;;;;;;;1.67;0.70;;;;;;;;;;5049025;28;20041;-68
2022/04/16 12:45:06;;;;;;;2.63;0.40;;;;;;;;;;5048558;28;20041;-67
2022/04/16 12:47:32;;;;;;;1.60;0.52;;;;;;;;;;5048346;28;20041;-68
2022/04/16 12:49:58;;;;;;;1.20;0.55;;;;;;;;;;5048841;28;20474;-67
2022/04/16 12:52:24;;;;;;;1.70;0.50;;;;;;;;;;5047686;28;20041;-68
2022/04/16 12:54:51;;;;;;;1.35;0.60;;;;;;;;;;5048739;28;20041;-68
2022/04/16 12:57:17;;;;;;;2.92;0.65;;;;;;;;;;5048093;28;20456;-68
2022/04/16 12:59:43;;;;;;;10.23;1.05;;;;;;;;;;5048790;28;20569;-68
2022/04/16 13:02:09;;;;;;;26.25;3.38;;;;;;;;;;5048927;28;20045;-68
2022/04/16 13:04:36;;;;;;;12.60;1.38;;;;;;;;;;5048707;28;20080;-69
2022/04/16 13:07:02;;;;;;;4.00;1.10;;;;;;;;;;5047941;28;20102;-69
2022/04/16 13:09:28;;;;;;;4.00;0.80;;;;;;;;;;5042208;28;20049;-68
2022/04/16 13:11:54;;;;;;;5.47;0.98;;;;;;;;;;5047272;28;20629;-69
2022/04/16 13:14:21;;;;;;;1.48;0.88;;;;;;;;;;5048747;28;20044;-69
2022/04/16 13:16:47;;;;;;;1.85;0.80;;;;;;;;;;5048408;28;20044;-69
2022/04/16 13:19:13;;;;;;;1.95;0.85;;;;;;;;;;5048288;28;20348;-68
2022/04/16 13:21:41;;;;;;;2.88;0.70;;;;;;;;;;5047773;28;20041;-68
2022/04/16 13:24:11;;;;;;;4.22;0.95;;;;;;;;;;5046673;28;20143;-70
2022/04/16 13:26:38;;;;;;;1.83;0.90;;;;;;;;;;5048398;28;20049;-68
2022/04/16 13:29:04;;;;;;;4.45;0.75;;;;;;;;;;5047553;28;20045;-70
2022/04/16 13:31:30;;;;;;;3.13;0.68;;;;;;;;;;5047825;28;20052;-69
2022/04/16 13:33:56;;;;;;;2.33;0.90;;;;;;;;;;5047848;28;20049;-69
2022/04/16 13:36:22;;;;;;;1.98;0.80;;;;;;;;;;5047266;28;20151;-69
2022/04/16 13:38:48;;;;;;;2.47;0.80;;;;;;;;;;5047556;28;20056;-69
2022/04/16 13:43:59;;;;;;;4.35;0.75;;;;;;;;;;5051774;28;20057;-68
2022/04/16 13:46:25;;;;;;;0.90;0.60;;;;;;;;;;5052511;28;20045;-68
2022/04/16 13:48:51;;;;;;;2.67;0.65;;;;;;;;;;5034195;28;20056;-67
2022/04/16 13:51:17;;;;;;;2.78;0.80;;;;;;;;;;5052510;28;20064;-69
2022/04/16 13:53:43;;;;;;;3.72;1.00;;;;;;;;;;5051807;28;20522;-69
2022/04/16 13:56:09;;;;;;;6.75;1.17;;;;;;;;;;5051785;28;20128;-68
2022/04/16 13:58:35;;;;;;;6.68;1.17;;;;;;;;;;5051606;28;20571;-69
2022/04/16 14:01:02;;;;;;;7.43;0.80;;;;;;;;;;5051881;28;20411;-67
2022/04/16 14:03:28;;;;;;;2.88;0.82;;;;;;;;;;5051342;28;20091;-69
2022/04/16 14:05:54;;;;;;;2.35;0.73;;;;;;;;;;5051726;28;20040;-68
2022/04/16 14:08:21;;;;;;;6.47;1.05;;;;;;;;;;5050916;28;20049;-68
2022/04/16 14:10:47;;;;;;;2.55;1.00;;;;;;;;;;5052187;28;20060;-68
2022/04/16 14:13:13;;;;;;;3.58;0.90;;;;;;;;;;5051504;28;20045;-69
2022/04/16 14:15:39;;;;;;;2.28;0.80;;;;;;;;;;5051391;28;20052;-69
2022/04/16 14:18:05;;;;;;;2.40;0.80;;;;;;;;;;5051872;28;20048;-70
2022/04/16 14:20:31;;;;;;;3.92;1.17;;;;;;;;;;5051445;28;20041;-68
2022/04/16 14:22:57;;;;;;;2.92;0.77;;;;;;;;;;5051468;28;20113;-69
2022/04/16 14:25:23;;;;;;;3.40;0.90;;;;;;;;;;5051083;28;20120;-70
2022/04/16 14:27:50;;;;;;;5.80;1.67;;;;;;;;;;5051170;28;20181;-71
2022/04/16 14:30:16;;;;;;;5.88;0.90;;;;;;;;;;5051284;28;20045;-70
2022/04/16 14:32:42;;;;;;;4.38;0.68;;;;;;;;;;5051838;28;20041;-69
2022/04/16 14:35:10;;;;;;;4.38;0.80;;;;;;;;;;5050133;28;20049;-70
2022/04/16 14:37:36;;;;;;;5.47;0.70;;;;;;;;;;5050963;28;20052;-70
2022/04/16 14:40:02;;;;;;;2.42;0.70;;;;;;;;;;5051676;28;20461;-69
2022/04/16 14:42:28;;;;;;;3.95;0.70;;;;;;;;;;5050293;28;20084;-69
2022/04/16 14:44:55;;;;;;;1.65;0.60;;;;;;;;;;5051089;28;20049;-70
2022/04/16 14:47:21;;;;;;;3.38;0.80;;;;;;;;;;5051079;28;20131;-70
2022/04/16 14:49:50;;;;;;;2.63;0.80;;;;;;;;;;5050432;28;20411;-69
2022/04/16 14:52:16;;;;;;;2.58;1.02;;;;;;;;;;5044411;28;20492;-70
2022/04/16 14:54:42;;;;;;;1.27;0.60;;;;;;;;;;5051041;28;20045;-69
2022/04/16 14:57:08;;;;;;;1.10;0.47;;;;;;;;;;5051247;28;20451;-69
2022/04/16 14:59:34;;;;;;;5.53;0.88;;;;;;;;;;5050405;28;20530;-68
2022/04/16 15:02:02;;;;;;;2.80;0.80;;;;;;;;;;5050485;28;20041;-67
2022/04/16 15:04:28;;;;;;;2.35;0.68;;;;;;;;;;5051073;28;20500;-67
2022/04/16 15:06:54;;;;;;;2.35;0.60;;;;;;;;;;5050800;28;20095;-68
2022/04/16 15:09:20;;;;;;;4.22;0.60;;;;;;;;;;5050737;28;20128;-67